sensor_id;sensor_type;location;lat;lon;timestamp;pressure;altitude;pressure_sealevel;temperature;humidity
64687;BME280;51113;53.646;-113.674;2023-05-24T00:02:10;60707.69;;;-145.13;100.00
64687;BME280;51113;53.646;-113.674;2023-05-24T00:06:59;93362.63;;;17.54;48.14
64687;BME280;51113;53.646;-113.674;2023-05-24T00:09:31;93362.94;;;17.18;48.27
64687;BME280;51113;53.646;-113.674;2023-05-24T00:12:00;93375.44;;;17.29;48.63
64687;BME280;51113;53.646;-113.674;2023-05-24T00:14:29;93378.31;;;16.85;48.89
64687;BME280;51113;53.646;-113.674;2023-05-24T00:16:58;93372.47;;;16.48;49.71
64687;BME280;51113;53.646;-113.674;2023-05-24T00:19:26;93375.75;;;16.23;50.38
64687;BME280;51113;53.646;-113.674;2023-05-24T00:21:56;93381.44;;;15.63;52.08
64687;BME280;51113;53.646;-113.674;2023-05-24T00:24:25;93379.72;;;15.58;52.67
64687;BME280;51113;53.646;-113.674;2023-05-24T00:26:54;93363.78;;;15.55;52.89
64687;BME280;51113;53.646;-113.674;2023-05-24T00:29:22;93361.72;;;15.43;53.84
64687;BME280;51113;53.646;-113.674;2023-05-24T00:31:51;93373.72;;;15.44;53.31
64687;BME280;51113;53.646;-113.674;2023-05-24T00:34:19;93367.03;;;15.15;53.82
64687;BME280;51113;53.646;-113.674;2023-05-24T00:36:47;93353.88;;;15.07;54.55
64687;BME280;51113;53.646;-113.674;2023-05-24T00:39:16;93362.16;;;14.86;55.40
64687;BME280;51113;53.646;-113.674;2023-05-24T00:41:44;93365.47;;;14.78;55.86
64687;BME280;51113;53.646;-113.674;2023-05-24T00:44:13;93364.03;;;14.72;54.51
64687;BME280;51113;53.646;-113.674;2023-05-24T00:46:41;93373.69;;;14.72;56.27
64687;BME280;51113;53.646;-113.674;2023-05-24T00:49:10;93368.28;;;14.68;56.21
64687;BME280;51113;53.646;-113.674;2023-05-24T00:51:39;93369.03;;;14.82;54.65
64687;BME280;51113;53.646;-113.674;2023-05-24T00:54:08;93367.88;;;14.89;54.89
64687;BME280;51113;53.646;-113.674;2023-05-24T00:56:36;93364.97;;;15.26;54.87
64687;BME280;51113;53.646;-113.674;2023-05-24T00:59:05;93355.69;;;15.87;53.35
64687;BME280;51113;53.646;-113.674;2023-05-24T01:01:34;93354.53;;;16.02;52.17
64687;BME280;51113;53.646;-113.674;2023-05-24T01:04:04;93352.34;;;15.95;51.73
64687;BME280;51113;53.646;-113.674;2023-05-24T01:06:42;93363.94;;;15.72;52.14
64687;BME280;51113;53.646;-113.674;2023-05-24T01:09:24;93361.53;;;15.84;52.29
64687;BME280;51113;53.646;-113.674;2023-05-24T01:12:03;93362.19;;;15.90;51.87
64687;BME280;51113;53.646;-113.674;2023-05-24T01:17:49;93368.34;;;15.63;54.07
64687;BME280;51113;53.646;-113.674;2023-05-24T01:20:20;93377.38;;;15.79;52.70
64687;BME280;51113;53.646;-113.674;2023-05-24T01:23:04;93367.13;;;15.46;53.91
64687;BME280;51113;53.646;-113.674;2023-05-24T01:26:12;93372.84;;;15.71;54.17
64687;BME280;51113;53.646;-113.674;2023-05-24T01:28:46;93377.19;;;15.53;55.24
64687;BME280;51113;53.646;-113.674;2023-05-24T01:31:17;93372.84;;;15.12;56.29
64687;BME280;51113;53.646;-113.674;2023-05-24T01:33:46;93371.47;;;14.79;57.84
64687;BME280;51113;53.646;-113.674;2023-05-24T01:36:14;60707.69;;;-145.13;100.00
64687;BME280;51113;53.646;-113.674;2023-05-24T01:38:43;60707.69;;;-145.13;100.00
64687;BME280;51113;53.646;-113.674;2023-05-24T01:44:26;60707.69;;;-145.13;100.00
64687;BME280;51113;53.646;-113.674;2023-05-24T01:49:53;60707.69;;;-145.13;100.00
64687;BME280;51113;53.646;-113.674;2023-05-24T01:52:28;60707.69;;;-145.13;100.00
64687;BME280;51113;53.646;-113.674;2023-05-24T01:55:00;60707.69;;;-145.13;100.00
64687;BME280;51113;53.646;-113.674;2023-05-24T01:57:31;60707.69;;;-145.13;100.00
64687;BME280;51113;53.646;-113.674;2023-05-24T02:00:02;60707.69;;;-145.13;100.00
64687;BME280;51113;53.646;-113.674;2023-05-24T02:02:30;60707.69;;;-145.13;100.00
64687;BME280;51113;53.646;-113.674;2023-05-24T02:05:00;60707.69;;;-145.13;100.00
64687;BME280;51113;53.646;-113.674;2023-05-24T02:07:28;60707.69;;;-145.13;100.00
64687;BME280;51113;53.646;-113.674;2023-05-24T02:09:57;60707.69;;;-145.13;100.00
64687;BME280;51113;53.646;-113.674;2023-05-24T02:12:25;60707.69;;;-145.13;100.00
64687;BME280;51113;53.646;-113.674;2023-05-24T02:14:54;60707.69;;;-145.13;100.00
64687;BME280;51113;53.646;-113.674;2023-05-24T02:17:24;60707.69;;;-145.13;100.00
64687;BME280;51113;53.646;-113.674;2023-05-24T02:19:54;60707.69;;;-145.13;100.00
64687;BME280;51113;53.646;-113.674;2023-05-24T02:22:22;60707.69;;;-145.13;100.00
64687;BME280;51113;53.646;-113.674;2023-05-24T02:24:50;60707.69;;;-145.13;100.00
64687;BME280;51113;53.646;-113.674;2023-05-24T02:27:19;60707.69;;;-145.13;100.00
64687;BME280;51113;53.646;-113.674;2023-05-24T02:29:48;60707.69;;;-145.13;100.00
64687;BME280;51113;53.646;-113.674;2023-05-24T02:32:16;60707.69;;;-145.13;100.00
64687;BME280;51113;53.646;-113.674;2023-05-24T02:34:45;60707.69;;;-145.13;100.00
64687;BME280;51113;53.646;-113.674;2023-05-24T02:37:13;60707.69;;;-145.13;100.00
64687;BME280;51113;53.646;-113.674;2023-05-24T02:39:42;60707.69;;;-145.13;100.00
64687;BME280;51113;53.646;-113.674;2023-05-24T02:42:11;60707.69;;;-145.13;100.00
64687;BME280;51113;53.646;-113.674;2023-05-24T02:44:39;60707.69;;;-145.13;100.00
64687;BME280;51113;53.646;-113.674;2023-05-24T02:47:09;60707.69;;;-145.13;100.00
64687;BME280;51113;53.646;-113.674;2023-05-24T02:49:38;60707.69;;;-145.13;100.00
64687;BME280;51113;53.646;-113.674;2023-05-24T02:52:06;60707.69;;;-145.13;100.00
64687;BME280;51113;53.646;-113.674;2023-05-24T02:54:35;60707.69;;;-145.13;100.00
64687;BME280;51113;53.646;-113.674;2023-05-24T02:57:04;60707.69;;;-145.13;100.00
64687;BME280;51113;53.646;-113.674;2023-05-24T02:59:33;60707.69;;;-145.13;100.00
64687;BME280;51113;53.646;-113.674;2023-05-24T03:02:03;60707.69;;;-145.13;100.00
64687;BME280;51113;53.646;-113.674;2023-05-24T03:04:32;60707.69;;;-145.13;100.00
64687;BME280;51113;53.646;-113.674;2023-05-24T03:07:01;60707.69;;;-145.13;100.00
64687;BME280;51113;53.646;-113.674;2023-05-24T03:09:30;60707.69;;;-145.13;100.00
64687;BME280;51113;53.646;-113.674;2023-05-24T03:11:58;60707.69;;;-145.13;100.00
64687;BME280;51113;53.646;-113.674;2023-05-24T03:14:27;60707.69;;;-145.13;100.00
64687;BME280;51113;53.646;-113.674;2023-05-24T03:16:56;60707.69;;;-145.13;100.00
64687;BME280;51113;53.646;-113.674;2023-05-24T03:19:24;60707.69;;;-145.13;100.00
64687;BME280;51113;53.646;-113.674;2023-05-24T03:21:53;60707.69;;;-145.13;100.00
64687;BME280;51113;53.646;-113.674;2023-05-24T03:24:22;60707.69;;;-145.13;100.00
64687;BME280;51113;53.646;-113.674;2023-05-24T03:26:50;60707.69;;;-145.13;100.00
64687;BME280;51113;53.646;-113.674;2023-05-24T03:29:19;60707.69;;;-145.13;100.00
64687;BME280;51113;53.646;-113.674;2023-05-24T03:31:47;60707.69;;;-145.13;100.00
64687;BME280;51113;53.646;-113.674;2023-05-24T03:34:16;60707.69;;;-145.13;100.00
64687;BME280;51113;53.646;-113.674;2023-05-24T03:36:44;60707.69;;;-145.13;100.00
64687;BME280;51113;53.646;-113.674;2023-05-24T03:39:13;60707.69;;;-145.13;100.00
64687;BME280;51113;53.646;-113.674;2023-05-24T03:41:41;60707.69;;;-145.13;100.00
64687;BME280;51113;53.646;-113.674;2023-05-24T03:44:10;60707.69;;;-145.13;100.00
64687;BME280;51113;53.646;-113.674;2023-05-24T03:46:38;60707.69;;;-145.13;100.00
64687;BME280;51113;53.646;-113.674;2023-05-24T03:49:07;60707.69;;;-145.13;100.00
64687;BME280;51113;53.646;-113.674;2023-05-24T03:51:35;60707.69;;;-145.13;100.00
64687;BME280;51113;53.646;-113.674;2023-05-24T03:54:04;60707.69;;;-145.13;100.00
64687;BME280;51113;53.646;-113.674;2023-05-24T03:56:33;60707.69;;;-145.13;100.00
64687;BME280;51113;53.646;-113.674;2023-05-24T03:59:02;60707.69;;;-145.13;100.00
64687;BME280;51113;53.646;-113.674;2023-05-24T04:01:30;60707.69;;;-145.13;100.00
64687;BME280;51113;53.646;-113.674;2023-05-24T04:04:02;60707.69;;;-145.13;100.00
64687;BME280;51113;53.646;-113.674;2023-05-24T04:06:31;60707.69;;;-145.13;100.00
64687;BME280;51113;53.646;-113.674;2023-05-24T04:09:00;60707.69;;;-145.13;100.00
64687;BME280;51113;53.646;-113.674;2023-05-24T04:11:28;60707.69;;;-145.13;100.00
64687;BME280;51113;53.646;-113.674;2023-05-24T04:13:58;60707.69;;;-145.13;100.00
64687;BME280;51113;53.646;-113.674;2023-05-24T04:16:29;60707.69;;;-145.13;100.00
64687;BME280;51113;53.646;-113.674;2023-05-24T04:19:01;60707.69;;;-145.13;100.00
64687;BME280;51113;53.646;-113.674;2023-05-24T04:21:30;60707.69;;;-145.13;100.00
64687;BME280;51113;53.646;-113.674;2023-05-24T04:24:00;60707.69;;;-145.13;100.00
64687;BME280;51113;53.646;-113.674;2023-05-24T04:26:28;60707.69;;;-145.13;100.00
64687;BME280;51113;53.646;-113.674;2023-05-24T04:28:57;60707.69;;;-145.13;100.00
64687;BME280;51113;53.646;-113.674;2023-05-24T04:31:25;60707.69;;;-145.13;100.00
64687;BME280;51113;53.646;-113.674;2023-05-24T04:33:56;60707.69;;;-145.13;100.00
64687;BME280;51113;53.646;-113.674;2023-05-24T04:36:26;60707.69;;;-145.13;100.00
64687;BME280;51113;53.646;-113.674;2023-05-24T04:38:55;60707.69;;;-145.13;100.00
64687;BME280;51113;53.646;-113.674;2023-05-24T04:41:30;60707.69;;;-145.13;100.00
64687;BME280;51113;53.646;-113.674;2023-05-24T04:44:02;60707.69;;;-145.13;100.00
64687;BME280;51113;53.646;-113.674;2023-05-24T04:46:31;60707.69;;;-145.13;100.00
64687;BME280;51113;53.646;-113.674;2023-05-24T04:49:03;60707.69;;;-145.13;100.00
64687;BME280;51113;53.646;-113.674;2023-05-24T04:51:32;60707.69;;;-145.13;100.00
64687;BME280;51113;53.646;-113.674;2023-05-24T04:54:01;60707.69;;;-145.13;100.00
64687;BME280;51113;53.646;-113.674;2023-05-24T04:56:36;60707.69;;;-145.13;100.00
64687;BME280;51113;53.646;-113.674;2023-05-24T04:59:07;60707.69;;;-145.13;100.00
64687;BME280;51113;53.646;-113.674;2023-05-24T05:01:36;60707.69;;;-145.13;100.00
64687;BME280;51113;53.646;-113.674;2023-05-24T05:04:06;60707.69;;;-145.13;100.00
64687;BME280;51113;53.646;-113.674;2023-05-24T05:06:35;60707.69;;;-145.13;100.00
64687;BME280;51113;53.646;-113.674;2023-05-24T05:09:07;60707.69;;;-145.13;100.00
64687;BME280;51113;53.646;-113.674;2023-05-24T05:11:41;60707.69;;;-145.13;100.00
64687;BME280;51113;53.646;-113.674;2023-05-24T05:14:09;60707.69;;;-145.13;100.00
64687;BME280;51113;53.646;-113.674;2023-05-24T05:16:38;60707.69;;;-145.13;100.00
64687;BME280;51113;53.646;-113.674;2023-05-24T05:19:08;60707.69;;;-145.13;100.00
64687;BME280;51113;53.646;-113.674;2023-05-24T05:21:36;60707.69;;;-145.13;100.00
64687;BME280;51113;53.646;-113.674;2023-05-24T05:24:06;60707.69;;;-145.13;100.00
64687;BME280;51113;53.646;-113.674;2023-05-24T05:26:35;60707.69;;;-145.13;100.00
64687;BME280;51113;53.646;-113.674;2023-05-24T05:29:04;60707.69;;;-145.13;100.00
64687;BME280;51113;53.646;-113.674;2023-05-24T05:31:32;60707.69;;;-145.13;100.00
64687;BME280;51113;53.646;-113.674;2023-05-24T05:34:01;60707.69;;;-145.13;100.00
64687;BME280;51113;53.646;-113.674;2023-05-24T05:36:30;60707.69;;;-145.13;100.00
64687;BME280;51113;53.646;-113.674;2023-05-24T05:38:59;60707.69;;;-145.13;100.00
64687;BME280;51113;53.646;-113.674;2023-05-24T05:41:27;60707.69;;;-145.13;100.00
64687;BME280;51113;53.646;-113.674;2023-05-24T05:43:56;60707.69;;;-145.13;100.00
64687;BME280;51113;53.646;-113.674;2023-05-24T05:46:24;60707.69;;;-145.13;100.00
64687;BME280;51113;53.646;-113.674;2023-05-24T05:48:53;60707.69;;;-145.13;100.00
64687;BME280;51113;53.646;-113.674;2023-05-24T05:51:22;60707.69;;;-145.13;100.00
64687;BME280;51113;53.646;-113.674;2023-05-24T05:53:51;60707.69;;;-145.13;100.00
64687;BME280;51113;53.646;-113.674;2023-05-24T05:56:19;60707.69;;;-145.13;100.00
64687;BME280;51113;53.646;-113.674;2023-05-24T05:58:48;60707.69;;;-145.13;100.00
64687;BME280;51113;53.646;-113.674;2023-05-24T06:01:17;60707.69;;;-145.13;100.00
64687;BME280;51113;53.646;-113.674;2023-05-24T06:03:45;60707.69;;;-145.13;100.00
64687;BME280;51113;53.646;-113.674;2023-05-24T06:06:14;60707.69;;;-145.13;100.00
64687;BME280;51113;53.646;-113.674;2023-05-24T06:08:43;60707.69;;;-145.13;100.00
64687;BME280;51113;53.646;-113.674;2023-05-24T06:11:12;60707.69;;;-145.13;100.00
64687;BME280;51113;53.646;-113.674;2023-05-24T06:13:40;60707.69;;;-145.13;100.00
64687;BME280;51113;53.646;-113.674;2023-05-24T06:16:09;60707.69;;;-145.13;100.00
64687;BME280;51113;53.646;-113.674;2023-05-24T06:18:37;60707.69;;;-145.13;100.00
64687;BME280;51113;53.646;-113.674;2023-05-24T06:21:16;60707.69;;;-145.13;100.00
64687;BME280;51113;53.646;-113.674;2023-05-24T06:23:44;60707.69;;;-145.13;100.00
64687;BME280;51113;53.646;-113.674;2023-05-24T06:26:12;60707.69;;;-145.13;100.00
64687;BME280;51113;53.646;-113.674;2023-05-24T06:28:41;60707.69;;;-145.13;100.00
64687;BME280;51113;53.646;-113.674;2023-05-24T06:31:09;60707.69;;;-145.13;100.00
64687;BME280;51113;53.646;-113.674;2023-05-24T06:33:38;60707.69;;;-145.13;100.00
64687;BME280;51113;53.646;-113.674;2023-05-24T06:36:12;60707.69;;;-145.13;100.00
64687;BME280;51113;53.646;-113.674;2023-05-24T06:38:41;60707.69;;;-145.13;100.00
64687;BME280;51113;53.646;-113.674;2023-05-24T06:41:09;60707.69;;;-145.13;100.00
64687;BME280;51113;53.646;-113.674;2023-05-24T06:43:38;60707.69;;;-145.13;100.00
64687;BME280;51113;53.646;-113.674;2023-05-24T06:46:07;60707.69;;;-145.13;100.00
64687;BME280;51113;53.646;-113.674;2023-05-24T06:48:35;60707.69;;;-145.13;100.00
64687;BME280;51113;53.646;-113.674;2023-05-24T06:51:04;60707.69;;;-145.13;100.00
64687;BME280;51113;53.646;-113.674;2023-05-24T06:53:33;60707.69;;;-145.13;100.00
64687;BME280;51113;53.646;-113.674;2023-05-24T06:56:01;60707.69;;;-145.13;100.00
64687;BME280;51113;53.646;-113.674;2023-05-24T06:58:30;60707.69;;;-145.13;100.00
64687;BME280;51113;53.646;-113.674;2023-05-24T07:00:59;60707.69;;;-145.13;100.00
64687;BME280;51113;53.646;-113.674;2023-05-24T07:03:27;60707.69;;;-145.13;100.00
64687;BME280;51113;53.646;-113.674;2023-05-24T07:05:57;60707.69;;;-145.13;100.00
64687;BME280;51113;53.646;-113.674;2023-05-24T07:08:26;60707.69;;;-145.13;100.00
64687;BME280;51113;53.646;-113.674;2023-05-24T07:10:55;60707.69;;;-145.13;100.00
64687;BME280;51113;53.646;-113.674;2023-05-24T07:13:24;60707.69;;;-145.13;100.00
64687;BME280;51113;53.646;-113.674;2023-05-24T07:15:52;60707.69;;;-145.13;100.00
64687;BME280;51113;53.646;-113.674;2023-05-24T07:18:21;60707.69;;;-145.13;100.00
64687;BME280;51113;53.646;-113.674;2023-05-24T07:20:50;60707.69;;;-145.13;100.00
64687;BME280;51113;53.646;-113.674;2023-05-24T07:23:18;60707.69;;;-145.13;100.00
64687;BME280;51113;53.646;-113.674;2023-05-24T07:25:47;60707.69;;;-145.13;100.00
64687;BME280;51113;53.646;-113.674;2023-05-24T07:28:16;60707.69;;;-145.13;100.00
64687;BME280;51113;53.646;-113.674;2023-05-24T07:30:47;60707.69;;;-145.13;100.00
64687;BME280;51113;53.646;-113.674;2023-05-24T07:33:16;60707.69;;;-145.13;100.00
64687;BME280;51113;53.646;-113.674;2023-05-24T07:35:45;60707.69;;;-145.13;100.00
64687;BME280;51113;53.646;-113.674;2023-05-24T07:38:18;60707.69;;;-145.13;100.00
64687;BME280;51113;53.646;-113.674;2023-05-24T07:40:47;60707.69;;;-145.13;100.00
64687;BME280;51113;53.646;-113.674;2023-05-24T07:43:16;60707.69;;;-145.13;100.00
64687;BME280;51113;53.646;-113.674;2023-05-24T07:45:44;60707.69;;;-145.13;100.00
64687;BME280;51113;53.646;-113.674;2023-05-24T07:48:13;60707.69;;;-145.13;100.00
64687;BME280;51113;53.646;-113.674;2023-05-24T07:50:42;60707.69;;;-145.13;100.00
64687;BME280;51113;53.646;-113.674;2023-05-24T07:53:15;60707.69;;;-145.13;100.00
64687;BME280;51113;53.646;-113.674;2023-05-24T07:55:43;60707.69;;;-145.13;100.00
64687;BME280;51113;53.646;-113.674;2023-05-24T07:58:12;60707.69;;;-145.13;100.00
64687;BME280;51113;53.646;-113.674;2023-05-24T08:00:41;60707.69;;;-145.13;100.00
64687;BME280;51113;53.646;-113.674;2023-05-24T08:03:09;60707.69;;;-145.13;100.00
64687;BME280;51113;53.646;-113.674;2023-05-24T08:05:41;60707.69;;;-145.13;100.00
64687;BME280;51113;53.646;-113.674;2023-05-24T08:08:11;60707.69;;;-145.13;100.00
64687;BME280;51113;53.646;-113.674;2023-05-24T08:10:39;60707.69;;;-145.13;100.00
64687;BME280;51113;53.646;-113.674;2023-05-24T08:13:08;60707.69;;;-145.13;100.00
64687;BME280;51113;53.646;-113.674;2023-05-24T08:15:37;60707.69;;;-145.13;100.00
64687;BME280;51113;53.646;-113.674;2023-05-24T08:18:06;60707.69;;;-145.13;100.00
64687;BME280;51113;53.646;-113.674;2023-05-24T08:20:34;60707.69;;;-145.13;100.00
64687;BME280;51113;53.646;-113.674;2023-05-24T08:23:04;60707.69;;;-145.13;100.00
64687;BME280;51113;53.646;-113.674;2023-05-24T08:25:32;60707.69;;;-145.13;100.00
64687;BME280;51113;53.646;-113.674;2023-05-24T08:28:01;60707.69;;;-145.13;100.00
64687;BME280;51113;53.646;-113.674;2023-05-24T08:30:29;60707.69;;;-145.13;100.00
64687;BME280;51113;53.646;-113.674;2023-05-24T08:32:59;60707.69;;;-145.13;100.00
64687;BME280;51113;53.646;-113.674;2023-05-24T08:35:28;60707.69;;;-145.13;100.00
64687;BME280;51113;53.646;-113.674;2023-05-24T08:37:56;60707.69;;;-145.13;100.00
64687;BME280;51113;53.646;-113.674;2023-05-24T08:40:25;60707.69;;;-145.13;100.00
64687;BME280;51113;53.646;-113.674;2023-05-24T08:42:55;60707.69;;;-145.13;100.00
64687;BME280;51113;53.646;-113.674;2023-05-24T08:45:29;60707.69;;;-145.13;100.00
64687;BME280;51113;53.646;-113.674;2023-05-24T08:47:58;60707.69;;;-145.13;100.00
64687;BME280;51113;53.646;-113.674;2023-05-24T08:50:28;60707.69;;;-145.13;100.00
64687;BME280;51113;53.646;-113.674;2023-05-24T08:52:58;60707.69;;;-145.13;100.00
64687;BME280;51113;53.646;-113.674;2023-05-24T08:55:26;60707.69;;;-145.13;100.00
64687;BME280;51113;53.646;-113.674;2023-05-24T08:57:58;60707.69;;;-145.13;100.00
64687;BME280;51113;53.646;-113.674;2023-05-24T09:00:27;60707.69;;;-145.13;100.00
64687;BME280;51113;53.646;-113.674;2023-05-24T09:02:57;60707.69;;;-145.13;100.00
64687;BME280;51113;53.646;-113.674;2023-05-24T09:05:28;60707.69;;;-145.13;100.00
64687;BME280;51113;53.646;-113.674;2023-05-24T09:07:58;60707.69;;;-145.13;100.00
64687;BME280;51113;53.646;-113.674;2023-05-24T09:10:29;60707.69;;;-145.13;100.00
64687;BME280;51113;53.646;-113.674;2023-05-24T09:13:18;60707.69;;;-145.13;100.00
64687;BME280;51113;53.646;-113.674;2023-05-24T09:15:47;60707.69;;;-145.13;100.00
64687;BME280;51113;53.646;-113.674;2023-05-24T09:18:15;60707.69;;;-145.13;100.00
64687;BME280;51113;53.646;-113.674;2023-05-24T09:20:44;60707.69;;;-145.13;100.00
64687;BME280;51113;53.646;-113.674;2023-05-24T09:23:13;60707.69;;;-145.13;100.00
64687;BME280;51113;53.646;-113.674;2023-05-24T09:25:47;60707.69;;;-145.13;100.00
64687;BME280;51113;53.646;-113.674;2023-05-24T09:28:17;60707.69;;;-145.13;100.00
64687;BME280;51113;53.646;-113.674;2023-05-24T09:30:57;60707.69;;;-145.13;100.00
64687;BME280;51113;53.646;-113.674;2023-05-24T09:33:30;60707.69;;;-145.13;100.00
64687;BME280;51113;53.646;-113.674;2023-05-24T09:36:04;60707.69;;;-145.13;100.00
64687;BME280;51113;53.646;-113.674;2023-05-24T09:38:33;60707.69;;;-145.13;100.00
64687;BME280;51113;53.646;-113.674;2023-05-24T09:41:05;60707.69;;;-145.13;100.00
64687;BME280;51113;53.646;-113.674;2023-05-24T09:43:46;60707.69;;;-145.13;100.00
64687;BME280;51113;53.646;-113.674;2023-05-24T09:46:17;60707.69;;;-145.13;100.00
64687;BME280;51113;53.646;-113.674;2023-05-24T09:48:57;60707.69;;;-145.13;100.00
64687;BME280;51113;53.646;-113.674;2023-05-24T09:51:26;60707.69;;;-145.13;100.00
64687;BME280;51113;53.646;-113.674;2023-05-24T09:54:00;60707.69;;;-145.13;100.00
64687;BME280;51113;53.646;-113.674;2023-05-24T09:56:32;60707.69;;;-145.13;100.00
64687;BME280;51113;53.646;-113.674;2023-05-24T09:59:07;60707.69;;;-145.13;100.00
64687;BME280;51113;53.646;-113.674;2023-05-24T10:01:36;60707.69;;;-145.13;100.00
64687;BME280;51113;53.646;-113.674;2023-05-24T10:04:05;60707.69;;;-145.13;100.00
64687;BME280;51113;53.646;-113.674;2023-05-24T10:06:36;60707.69;;;-145.13;100.00
64687;BME280;51113;53.646;-113.674;2023-05-24T10:09:05;60707.69;;;-145.13;100.00
64687;BME280;51113;53.646;-113.674;2023-05-24T10:11:36;60707.69;;;-145.13;100.00
64687;BME280;51113;53.646;-113.674;2023-05-24T10:14:05;60707.69;;;-145.13;100.00
64687;BME280;51113;53.646;-113.674;2023-05-24T10:16:34;60707.69;;;-145.13;100.00
64687;BME280;51113;53.646;-113.674;2023-05-24T10:19:05;60707.69;;;-145.13;100.00
64687;BME280;51113;53.646;-113.674;2023-05-24T10:21:35;60707.69;;;-145.13;100.00
64687;BME280;51113;53.646;-113.674;2023-05-24T10:24:08;60707.69;;;-145.13;100.00
64687;BME280;51113;53.646;-113.674;2023-05-24T10:26:39;60707.69;;;-145.13;100.00
64687;BME280;51113;53.646;-113.674;2023-05-24T10:29:18;60707.69;;;-145.13;100.00
64687;BME280;51113;53.646;-113.674;2023-05-24T10:31:49;60707.69;;;-145.13;100.00
64687;BME280;51113;53.646;-113.674;2023-05-24T10:34:19;60707.69;;;-145.13;100.00
64687;BME280;51113;53.646;-113.674;2023-05-24T10:36:48;60707.69;;;-145.13;100.00
64687;BME280;51113;53.646;-113.674;2023-05-24T10:39:20;60707.69;;;-145.13;100.00
64687;BME280;51113;53.646;-113.674;2023-05-24T10:41:50;60707.69;;;-145.13;100.00
64687;BME280;51113;53.646;-113.674;2023-05-24T10:44:18;60707.69;;;-145.13;100.00
64687;BME280;51113;53.646;-113.674;2023-05-24T10:49:50;60707.69;;;-145.13;100.00
64687;BME280;51113;53.646;-113.674;2023-05-24T10:52:20;60707.69;;;-145.13;100.00
64687;BME280;51113;53.646;-113.674;2023-05-24T10:55:04;60707.69;;;-145.13;100.00
64687;BME280;51113;53.646;-113.674;2023-05-24T10:57:35;60707.69;;;-145.13;100.00
64687;BME280;51113;53.646;-113.674;2023-05-24T11:00:33;60707.69;;;-145.13;100.00
64687;BME280;51113;53.646;-113.674;2023-05-24T11:03:07;60707.69;;;-145.13;100.00
64687;BME280;51113;53.646;-113.674;2023-05-24T11:08:33;60707.69;;;-145.13;100.00
64687;BME280;51113;53.646;-113.674;2023-05-24T11:13:55;60707.69;;;-145.13;100.00
64687;BME280;51113;53.646;-113.674;2023-05-24T11:16:52;60707.69;;;-145.13;100.00
64687;BME280;51113;53.646;-113.674;2023-05-24T11:19:23;60707.69;;;-145.13;100.00
64687;BME280;51113;53.646;-113.674;2023-05-24T11:21:52;60707.69;;;-145.13;100.00
64687;BME280;51113;53.646;-113.674;2023-05-24T11:24:21;60707.69;;;-145.13;100.00
64687;BME280;51113;53.646;-113.674;2023-05-24T11:26:50;60707.69;;;-145.13;100.00
64687;BME280;51113;53.646;-113.674;2023-05-24T11:29:20;60707.69;;;-145.13;100.00
64687;BME280;51113;53.646;-113.674;2023-05-24T11:31:51;60707.69;;;-145.13;100.00
64687;BME280;51113;53.646;-113.674;2023-05-24T11:34:21;60707.69;;;-145.13;100.00
64687;BME280;51113;53.646;-113.674;2023-05-24T11:36:50;60707.69;;;-145.13;100.00
64687;BME280;51113;53.646;-113.674;2023-05-24T11:39:19;60707.69;;;-145.13;100.00
64687;BME280;51113;53.646;-113.674;2023-05-24T11:41:48;60707.69;;;-145.13;100.00
64687;BME280;51113;53.646;-113.674;2023-05-24T11:44:17;60707.69;;;-145.13;100.00
64687;BME280;51113;53.646;-113.674;2023-05-24T11:46:46;60707.69;;;-145.13;100.00
64687;BME280;51113;53.646;-113.674;2023-05-24T11:49:16;60707.69;;;-145.13;100.00
64687;BME280;51113;53.646;-113.674;2023-05-24T11:51:45;60707.69;;;-145.13;100.00
64687;BME280;51113;53.646;-113.674;2023-05-24T11:54:13;60707.69;;;-145.13;100.00
64687;BME280;51113;53.646;-113.674;2023-05-24T11:56:42;60707.69;;;-145.13;100.00
64687;BME280;51113;53.646;-113.674;2023-05-24T11:59:15;60707.69;;;-145.13;100.00
64687;BME280;51113;53.646;-113.674;2023-05-24T12:01:44;60707.69;;;-145.13;100.00
64687;BME280;51113;53.646;-113.674;2023-05-24T12:04:13;60707.69;;;-145.13;100.00
64687;BME280;51113;53.646;-113.674;2023-05-24T12:06:43;60707.69;;;-145.13;100.00
64687;BME280;51113;53.646;-113.674;2023-05-24T12:09:13;60707.69;;;-145.13;100.00
64687;BME280;51113;53.646;-113.674;2023-05-24T12:11:45;60707.69;;;-145.13;100.00
64687;BME280;51113;53.646;-113.674;2023-05-24T12:14:16;60707.69;;;-145.13;100.00
64687;BME280;51113;53.646;-113.674;2023-05-24T12:16:46;60707.69;;;-145.13;100.00
64687;BME280;51113;53.646;-113.674;2023-05-24T12:19:18;60707.69;;;-145.13;100.00
64687;BME280;51113;53.646;-113.674;2023-05-24T12:22:00;60707.69;;;-145.13;100.00
64687;BME280;51113;53.646;-113.674;2023-05-24T12:24:32;60707.69;;;-145.13;100.00
64687;BME280;51113;53.646;-113.674;2023-05-24T12:27:05;60707.69;;;-145.13;100.00
64687;BME280;51113;53.646;-113.674;2023-05-24T12:29:39;60707.69;;;-145.13;100.00
64687;BME280;51113;53.646;-113.674;2023-05-24T12:32:09;60707.69;;;-145.13;100.00
64687;BME280;51113;53.646;-113.674;2023-05-24T12:34:42;60707.69;;;-145.13;100.00
64687;BME280;51113;53.646;-113.674;2023-05-24T12:37:13;60707.69;;;-145.13;100.00
64687;BME280;51113;53.646;-113.674;2023-05-24T12:39:41;60707.69;;;-145.13;100.00
64687;BME280;51113;53.646;-113.674;2023-05-24T12:42:11;60707.69;;;-145.13;100.00